Ban Gong Hu — BOEY — position and weather

sailwx.info

Track history (hours):
 
Tides and Currents Weather Stations Pressure Air Temp Water Temp Dewpoint Dewpoint Depression Visibility Wind Speed Wind Dir Waves Ship Positions

Ban Gong Hu

Last reported at 2017-Oct-06 07:14 UTC. Time now 2017-Oct-17 13:36 UTC.
Position N 01°12' E 103°33'.
Warning: this ship's position is 11 days out of date.

Length 229 m; draft 8.5 m.

Type: Tanker. MMSI: 412371000.

Date/timePositionNaut miles runAvg speedWind from/ knotsBaromVisibWave heightAir tempDewpointWater temp
2017-Oct-06 07:14N 01°12' E 103°33'313.0
2017-Oct-06 07:00N 01°12' E 103°36'4 8.1
2017-Oct-06 06:30N 01°13' E 103°40'2 3.4
2017-Oct-06 05:55N 01°14' E 103°41'0 0.0
2017-Oct-06 05:28N 01°14' E 103°41'0 0.0
2017-Oct-06 04:58N 01°14' E 103°41'0 0.0
2017-Oct-06 04:28N 01°14' E 103°41'0 0.0
2017-Oct-06 03:55N 01°14' E 103°41'0 0.0
2017-Oct-06 03:25N 01°14' E 103°41'0 0.0
2017-Oct-06 02:58N 01°14' E 103°41'0 0.0
2017-Oct-06 02:28N 01°14' E 103°41'0 0.0
2017-Oct-06 01:55N 01°14' E 103°41'0 0.0
2017-Oct-06 01:25N 01°14' E 103°41'0 0.0
2017-Oct-06 00:58N 01°14' E 103°41'0 0.0
2017-Oct-06 00:28N 01°14' E 103°41'0 0.0
2017-Oct-05 23:52N 01°14' E 103°41'0 0.0
2017-Oct-05 23:25N 01°14' E 103°41'0 0.0
2017-Oct-05 22:58N 01°14' E 103°41'0 0.0
2017-Oct-05 22:22N 01°14' E 103°41'0 0.0
2017-Oct-05 21:58N 01°14' E 103°41'0 0.0
2017-Oct-05 21:25N 01°14' E 103°41'0 0.0
2017-Oct-05 20:58N 01°14' E 103°41'0 0.0
2017-Oct-05 20:25N 01°14' E 103°41'0 0.0
2017-Oct-05 19:55N 01°14' E 103°41'0 0.0
2017-Oct-05 19:28N 01°14' E 103°41'0 0.0
2017-Oct-05 18:55N 01°14' E 103°41'1316.8
2017-Oct-05 18:09N 01°14' E 103°54'0 2.6
2017-Oct-05 18:00N 01°14' E 103°55'1 2.4
2017-Oct-05 17:30N 01°15' E 103°56'1 2.7
2017-Oct-05 17:00N 01°15' E 103°57'2 1.3
2017-Oct-05 15:30N 01°16' E 103°59'0 0.7
2017-Oct-05 15:00N 01°16' E 103°59'0 0.4
2017-Oct-05 14:30N 01°16' E 103°59'0 0.6
2017-Oct-05 13:59N 01°16' E 103°60'1829.5
2017-Oct-05 13:22N 01°14' E 103°41'0 0.0
2017-Oct-05 12:58N 01°14' E 103°41'0 0.0
2017-Oct-05 12:28N 01°14' E 103°41'0 0.0
2017-Oct-05 11:55N 01°14' E 103°41'0 0.0
2017-Oct-05 11:25N 01°14' E 103°41'0 0.0
2017-Oct-05 10:55N 01°14' E 103°41'0 0.0
2017-Oct-05 10:28N 01°14' E 103°41'0 0.0
2017-Oct-05 09:58N 01°14' E 103°41'0 0.0
2017-Oct-05 09:30N 01°14' E 103°41'0 0.7
2017-Oct-05 09:00N 01°14' E 103°42'3 6.5
2017-Oct-05 08:30N 01°16' E 103°45'5 9.3
2017-Oct-05 08:00N 01°13' E 103°48'0 0.4
2017-Oct-05 07:30N 01°13' E 103°48'0 0.2
2017-Oct-05 07:00N 01°13' E 103°48'3 5.1
2017-Oct-05 06:30N 01°13' E 103°51'5 9.5
2017-Oct-05 06:00N 01°14' E 103°55'4 7.5
2017-Oct-05 05:30N 01°16' E 103°59'2 3.0
2017-Oct-05 05:00N 01°16' E 104°00'3 4.9
2017-Oct-05 04:29N 01°16' E 104°03'2 4.9
2017-Oct-05 04:00N 01°17' E 104°05'4 0.1
2017-Oct-04 01:23N 01°19' E 104°08'1 0.1
2017-Oct-03 14:35N 01°19' E 104°09'1 2.4
2017-Oct-03 14:00N 01°19' E 104°08'0 0.0
2017-Oct-01 21:46N 01°19' E 104°08'0 0.2
2017-Oct-01 21:28N 01°19' E 104°08'0 0.1
2017-Oct-01 20:55N 01°19' E 104°08'0 0.0
2017-Oct-01 20:16N 01°19' E 104°08'0 0.0
2017-Oct-01 19:53N 01°19' E 104°08'0 0.0
2017-Oct-01 17:13N 01°19' E 104°08'0 0.0
2017-Oct-01 16:43N 01°19' E 104°08'0 0.0
2017-Oct-01 16:16N 01°19' E 104°08'0 0.0
2017-Oct-01 14:55N 01°19' E 104°08'0 0.0
2017-Oct-01 14:29N 01°19' E 104°08'0 0.0
2017-Oct-01 13:43N 01°19' E 104°08'0 0.0
2017-Oct-01 13:01N 01°19' E 104°08'0 0.2
2017-Oct-01 12:46N 01°19' E 104°08'0 0.1
2017-Oct-01 04:32N 01°18' E 104°09'0 0.4
2017-Oct-01 04:29N 01°18' E 104°09'1 1.1
2017-Oct-01 03:06N 01°18' E 104°10'0 1.6
2017-Oct-01 02:59N 01°18' E 104°10'24 1.0
2017-Sep-30 01:56N 01°14' E 103°46'0 0.0
2017-Sep-30 01:26N 01°14' E 103°46'0 0.0
2017-Sep-30 00:56N 01°14' E 103°46'0 0.0
2017-Sep-30 00:29N 01°14' E 103°46'0 0.0
2017-Sep-29 23:56N 01°14' E 103°46'0 0.0
2017-Sep-29 23:29N 01°14' E 103°46'0 0.0
2017-Sep-29 22:50N 01°14' E 103°46'0 0.0
2017-Sep-29 22:29N 01°14' E 103°46'0 0.0
2017-Sep-29 21:56N 01°14' E 103°46'0 0.0
2017-Sep-29 21:29N 01°14' E 103°46'0 0.0
2017-Sep-29 20:56N 01°14' E 103°46'0 0.0
2017-Sep-29 20:29N 01°14' E 103°46'0 0.0
2017-Sep-29 19:47N 01°14' E 103°46'0 0.0
2017-Sep-29 19:29N 01°14' E 103°46'0 0.0
2017-Sep-29 18:53N 01°14' E 103°46'0 0.0
2017-Sep-29 18:29N 01°14' E 103°46'0 0.0
2017-Sep-29 17:56N 01°14' E 103°46'0 0.0
2017-Sep-29 17:26N 01°14' E 103°46'0 0.0
2017-Sep-29 16:56N 01°14' E 103°46'0 0.0
2017-Sep-29 16:29N 01°14' E 103°46'0 0.0
2017-Sep-29 15:56N 01°14' E 103°46'0 0.0
2017-Sep-29 15:26N 01°14' E 103°46'0 0.0
2017-Sep-29 14:53N 01°14' E 103°46'0 0.0
2017-Sep-29 14:29N 01°14' E 103°46'0 0.0
2017-Sep-29 13:56N 01°14' E 103°46'0 0.0
2017-Sep-29 13:29N 01°14' E 103°46'0 0.0
2017-Sep-29 12:56N 01°14' E 103°46'2 4.1
2017-Sep-29 12:23N 01°14' E 103°49'2 3.7
2017-Sep-29 11:47N 01°14' E 103°46'0 0.0
2017-Sep-29 11:29N 01°14' E 103°46'0 0.0
2017-Sep-29 10:56N 01°14' E 103°46'0 0.0
2017-Sep-29 10:29N 01°14' E 103°46'2 3.8
2017-Sep-29 09:55N 01°14' E 103°48'2 5.1
2017-Sep-29 09:29N 01°14' E 103°46'0 0.0
2017-Sep-29 08:56N 01°14' E 103°46'0 0.0
2017-Sep-29 08:29N 01°14' E 103°46'0 0.0
2017-Sep-29 07:56N 01°14' E 103°46'0 0.0
2017-Sep-29 07:29N 01°14' E 103°46'0 0.0
2017-Sep-29 06:56N 01°14' E 103°46'0 0.0
2017-Sep-29 06:29N 01°14' E 103°46'0 0.0
2017-Sep-29 05:56N 01°14' E 103°46'0 0.0
2017-Sep-29 05:29N 01°14' E 103°46'0 0.0
2017-Sep-29 04:56N 01°14' E 103°46'0 0.0
2017-Sep-29 04:26N 01°14' E 103°46'0 0.0
2017-Sep-29 03:56N 01°14' E 103°46'0 0.0
2017-Sep-29 03:29N 01°14' E 103°46'0 0.0
2017-Sep-29 03:01N 01°14' E 103°46'2 3.1
2017-Sep-29 02:30N 01°14' E 103°48'1 1.7
2017-Sep-29 02:00N 01°14' E 103°49'0 0.1
2017-Sep-29 01:30N 01°14' E 103°49'0 0.3
2017-Sep-29 01:00N 01°14' E 103°49'0 0.4
2017-Sep-29 00:30N 01°14' E 103°49'0 0.1
2017-Sep-29 00:00N 01°14' E 103°48'1722.8
2017-Sep-28 23:15N 01°20' E 104°05'0 1.7
2017-Sep-28 23:00N 01°20' E 104°04'1 1.8
2017-Sep-28 22:30N 01°21' E 104°04'1730.6
2017-Sep-28 21:57N 01°14' E 103°48'0 0.1
2017-Sep-28 21:30N 01°14' E 103°48'0 0.1
2017-Sep-28 21:00N 01°14' E 103°49'0 0.1
2017-Sep-28 20:27N 01°14' E 103°49'0 0.1
2017-Sep-28 19:57N 01°14' E 103°49'0 0.0
2017-Sep-28 19:30N 01°14' E 103°49'0 0.0
2017-Sep-28 19:00N 01°14' E 103°49'0 0.0
2017-Sep-28 18:30N 01°14' E 103°49'0 0.0
2017-Sep-28 18:00N 01°14' E 103°49'0 0.0
2017-Sep-28 17:30N 01°14' E 103°49'0 0.0
2017-Sep-28 16:57N 01°14' E 103°49'0 0.1
2017-Sep-28 16:30N 01°14' E 103°49'0 0.0
2017-Sep-28 16:00N 01°14' E 103°49'0 0.0
2017-Sep-28 15:30N 01°14' E 103°49'0 0.6
2017-Sep-28 15:00N 01°13' E 103°49'3 6.0
2017-Sep-28 14:30N 01°13' E 103°52'4 8.1
2017-Sep-28 14:00N 01°14' E 103°55'3 6.2
2017-Sep-28 13:30N 01°16' E 103°58'2 3.8
2017-Sep-28 13:00N 01°16' E 104°00'3 5.1
2017-Sep-28 12:27N 01°16' E 104°03'2 4.7
2017-Sep-28 11:58N 01°17' E 104°05'2 4.1
2017-Sep-28 11:23N 01°19' E 104°05'3 6.8
2017-Sep-28 10:58N 01°21' E 104°03'4 0.3
2017-Sep-27 20:01N 01°19' E 104°07'0 1.2
2017-Sep-27 19:49N 01°19' E 104°07'5 0.5
2017-Sep-27 08:45N 01°22' E 104°03'311.2
2017-Sep-27 08:31N 01°20' E 104°05'3 2.4
2017-Sep-27 07:06N 01°19' E 104°08'0 0.0
2017-Sep-27 06:52N 01°19' E 104°08'0 0.1
2017-Sep-27 05:46N 01°19' E 104°08'0 0.0
2017-Sep-27 01:13N 01°19' E 104°08'0 0.1
2017-Sep-27 00:43N 01°19' E 104°08'0 0.2
2017-Sep-27 00:19N 01°19' E 104°08'0 0.1
2017-Sep-26 23:46N 01°19' E 104°08'0 0.0
2017-Sep-26 22:09N 01°19' E 104°08'0 0.1
2017-Sep-26 21:55N 01°19' E 104°08'0 0.0
2017-Sep-26 21:12N 01°19' E 104°08'0 0.0
2017-Sep-26 20:46N 01°19' E 104°08'0 0.0
2017-Sep-26 20:25N 01°19' E 104°08'0 0.1
2017-Sep-26 19:58N 01°19' E 104°08'0 0.1
2017-Sep-26 17:10N 01°19' E 104°08'0 0.0
2017-Sep-26 17:00N 01°19' E 104°08'0 0.2
2017-Sep-26 15:55N 01°19' E 104°08'0 0.1
2017-Sep-26 15:28N 01°19' E 104°08'0 0.1
2017-Sep-26 15:00N 01°19' E 104°08'0 0.3
2017-Sep-26 14:25N 01°19' E 104°08'0 0.8
2017-Sep-26 13:56N 01°18' E 104°08'1 0.9
2017-Sep-26 13:22N 01°19' E 104°08'0 0.0
2017-Sep-26 12:07N 01°19' E 104°08'0 0.0
2017-Sep-26 11:43N 01°19' E 104°08'0 0.0
2017-Sep-26 11:25N 01°19' E 104°08'20 6.0
2017-Sep-26 08:08N 01°13' E 103°49'0 0.0
2017-Sep-26 07:44N 01°13' E 103°49'  
Track history (hours):
 
Tides and Currents Weather Stations Pressure Air Temp Water Temp Dewpoint Dewpoint Depression Visibility Wind Speed Wind Dir Waves Ship Positions

Ban Gong Hu

Last reported at 2017-Oct-06 07:14 UTC. Time now 2017-Oct-17 13:36 UTC.
Position N 01°12' E 103°33'.
Warning: this ship's position is 11 days out of date.

Length 229 m; draft 8.5 m.

Type: Tanker. MMSI: 412371000.

Date/timePositionNaut miles runAvg speedWind from/ knotsBaromVisibWave heightAir tempDewpointWater temp
2017-Oct-06 07:14N 01°12' E 103°33'313.0
2017-Oct-06 07:00N 01°12' E 103°36'4 8.1
2017-Oct-06 06:30N 01°13' E 103°40'2 3.4
2017-Oct-06 05:55N 01°14' E 103°41'0 0.0
2017-Oct-06 05:28N 01°14' E 103°41'0 0.0
2017-Oct-06 04:58N 01°14' E 103°41'0 0.0
2017-Oct-06 04:28N 01°14' E 103°41'0 0.0
2017-Oct-06 03:55N 01°14' E 103°41'0 0.0
2017-Oct-06 03:25N 01°14' E 103°41'0 0.0
2017-Oct-06 02:58N 01°14' E 103°41'0 0.0
2017-Oct-06 02:28N 01°14' E 103°41'0 0.0
2017-Oct-06 01:55N 01°14' E 103°41'0 0.0
2017-Oct-06 01:25N 01°14' E 103°41'0 0.0
2017-Oct-06 00:58N 01°14' E 103°41'0 0.0
2017-Oct-06 00:28N 01°14' E 103°41'0 0.0
2017-Oct-05 23:52N 01°14' E 103°41'0 0.0
2017-Oct-05 23:25N 01°14' E 103°41'0 0.0
2017-Oct-05 22:58N 01°14' E 103°41'0 0.0
2017-Oct-05 22:22N 01°14' E 103°41'0 0.0
2017-Oct-05 21:58N 01°14' E 103°41'0 0.0
2017-Oct-05 21:25N 01°14' E 103°41'0 0.0
2017-Oct-05 20:58N 01°14' E 103°41'0 0.0
2017-Oct-05 20:25N 01°14' E 103°41'0 0.0
2017-Oct-05 19:55N 01°14' E 103°41'0 0.0
2017-Oct-05 19:28N 01°14' E 103°41'0 0.0
2017-Oct-05 18:55N 01°14' E 103°41'1316.8
2017-Oct-05 18:09N 01°14' E 103°54'0 2.6
2017-Oct-05 18:00N 01°14' E 103°55'1 2.4
2017-Oct-05 17:30N 01°15' E 103°56'1 2.7
2017-Oct-05 17:00N 01°15' E 103°57'2 1.3
2017-Oct-05 15:30N 01°16' E 103°59'0 0.7
2017-Oct-05 15:00N 01°16' E 103°59'0 0.4
2017-Oct-05 14:30N 01°16' E 103°59'0 0.6
2017-Oct-05 13:59N 01°16' E 103°60'1829.5
2017-Oct-05 13:22N 01°14' E 103°41'0 0.0
2017-Oct-05 12:58N 01°14' E 103°41'0 0.0
2017-Oct-05 12:28N 01°14' E 103°41'0 0.0
2017-Oct-05 11:55N 01°14' E 103°41'0 0.0
2017-Oct-05 11:25N 01°14' E 103°41'0 0.0
2017-Oct-05 10:55N 01°14' E 103°41'0 0.0
2017-Oct-05 10:28N 01°14' E 103°41'0 0.0
2017-Oct-05 09:58N 01°14' E 103°41'0 0.0
2017-Oct-05 09:30N 01°14' E 103°41'0 0.7
2017-Oct-05 09:00N 01°14' E 103°42'3 6.5
2017-Oct-05 08:30N 01°16' E 103°45'5 9.3
2017-Oct-05 08:00N 01°13' E 103°48'0 0.4
2017-Oct-05 07:30N 01°13' E 103°48'0 0.2
2017-Oct-05 07:00N 01°13' E 103°48'3 5.1
2017-Oct-05 06:30N 01°13' E 103°51'5 9.5
2017-Oct-05 06:00N 01°14' E 103°55'4 7.5
2017-Oct-05 05:30N 01°16' E 103°59'2 3.0
2017-Oct-05 05:00N 01°16' E 104°00'3 4.9
2017-Oct-05 04:29N 01°16' E 104°03'2 4.9
2017-Oct-05 04:00N 01°17' E 104°05'4 0.1
2017-Oct-04 01:23N 01°19' E 104°08'1 0.1
2017-Oct-03 14:35N 01°19' E 104°09'1 2.4
2017-Oct-03 14:00N 01°19' E 104°08'0 0.0
2017-Oct-01 21:46N 01°19' E 104°08'0 0.2
2017-Oct-01 21:28N 01°19' E 104°08'0 0.1
2017-Oct-01 20:55N 01°19' E 104°08'0 0.0
2017-Oct-01 20:16N 01°19' E 104°08'0 0.0
2017-Oct-01 19:53N 01°19' E 104°08'0 0.0
2017-Oct-01 17:13N 01°19' E 104°08'0 0.0
2017-Oct-01 16:43N 01°19' E 104°08'0 0.0
2017-Oct-01 16:16N 01°19' E 104°08'0 0.0
2017-Oct-01 14:55N 01°19' E 104°08'0 0.0
2017-Oct-01 14:29N 01°19' E 104°08'0 0.0
2017-Oct-01 13:43N 01°19' E 104°08'0 0.0
2017-Oct-01 13:01N 01°19' E 104°08'0 0.2
2017-Oct-01 12:46N 01°19' E 104°08'0 0.1
2017-Oct-01 04:32N 01°18' E 104°09'0 0.4
2017-Oct-01 04:29N 01°18' E 104°09'1 1.1
2017-Oct-01 03:06N 01°18' E 104°10'0 1.6
2017-Oct-01 02:59N 01°18' E 104°10'24 1.0
2017-Sep-30 01:56N 01°14' E 103°46'0 0.0
2017-Sep-30 01:26N 01°14' E 103°46'0 0.0
2017-Sep-30 00:56N 01°14' E 103°46'0 0.0
2017-Sep-30 00:29N 01°14' E 103°46'0 0.0
2017-Sep-29 23:56N 01°14' E 103°46'0 0.0
2017-Sep-29 23:29N 01°14' E 103°46'0 0.0
2017-Sep-29 22:50N 01°14' E 103°46'0 0.0
2017-Sep-29 22:29N 01°14' E 103°46'0 0.0
2017-Sep-29 21:56N 01°14' E 103°46'0 0.0
2017-Sep-29 21:29N 01°14' E 103°46'0 0.0
2017-Sep-29 20:56N 01°14' E 103°46'0 0.0
2017-Sep-29 20:29N 01°14' E 103°46'0 0.0
2017-Sep-29 19:47N 01°14' E 103°46'0 0.0
2017-Sep-29 19:29N 01°14' E 103°46'0 0.0
2017-Sep-29 18:53N 01°14' E 103°46'0 0.0
2017-Sep-29 18:29N 01°14' E 103°46'0 0.0
2017-Sep-29 17:56N 01°14' E 103°46'0 0.0
2017-Sep-29 17:26N 01°14' E 103°46'0 0.0
2017-Sep-29 16:56N 01°14' E 103°46'0 0.0
2017-Sep-29 16:29N 01°14' E 103°46'0 0.0
2017-Sep-29 15:56N 01°14' E 103°46'0 0.0
2017-Sep-29 15:26N 01°14' E 103°46'0 0.0
2017-Sep-29 14:53N 01°14' E 103°46'0 0.0
2017-Sep-29 14:29N 01°14' E 103°46'0 0.0
2017-Sep-29 13:56N 01°14' E 103°46'0 0.0
2017-Sep-29 13:29N 01°14' E 103°46'0 0.0
2017-Sep-29 12:56N 01°14' E 103°46'2 4.1
2017-Sep-29 12:23N 01°14' E 103°49'2 3.7
2017-Sep-29 11:47N 01°14' E 103°46'0 0.0
2017-Sep-29 11:29N 01°14' E 103°46'0 0.0
2017-Sep-29 10:56N 01°14' E 103°46'0 0.0
2017-Sep-29 10:29N 01°14' E 103°46'2 3.8
2017-Sep-29 09:55N 01°14' E 103°48'2 5.1
2017-Sep-29 09:29N 01°14' E 103°46'0 0.0
2017-Sep-29 08:56N 01°14' E 103°46'0 0.0
2017-Sep-29 08:29N 01°14' E 103°46'0 0.0
2017-Sep-29 07:56N 01°14' E 103°46'0 0.0
2017-Sep-29 07:29N 01°14' E 103°46'0 0.0
2017-Sep-29 06:56N 01°14' E 103°46'0 0.0
2017-Sep-29 06:29N 01°14' E 103°46'0 0.0
2017-Sep-29 05:56N 01°14' E 103°46'0 0.0
2017-Sep-29 05:29N 01°14' E 103°46'0 0.0
2017-Sep-29 04:56N 01°14' E 103°46'0 0.0
2017-Sep-29 04:26N 01°14' E 103°46'0 0.0
2017-Sep-29 03:56N 01°14' E 103°46'0 0.0
2017-Sep-29 03:29N 01°14' E 103°46'0 0.0
2017-Sep-29 03:01N 01°14' E 103°46'2 3.1
2017-Sep-29 02:30N 01°14' E 103°48'1 1.7
2017-Sep-29 02:00N 01°14' E 103°49'0 0.1
2017-Sep-29 01:30N 01°14' E 103°49'0 0.3
2017-Sep-29 01:00N 01°14' E 103°49'0 0.4
2017-Sep-29 00:30N 01°14' E 103°49'0 0.1
2017-Sep-29 00:00N 01°14' E 103°48'1722.8
2017-Sep-28 23:15N 01°20' E 104°05'0 1.7
2017-Sep-28 23:00N 01°20' E 104°04'1 1.8
2017-Sep-28 22:30N 01°21' E 104°04'1730.6
2017-Sep-28 21:57N 01°14' E 103°48'0 0.1
2017-Sep-28 21:30N 01°14' E 103°48'0 0.1
2017-Sep-28 21:00N 01°14' E 103°49'0 0.1
2017-Sep-28 20:27N 01°14' E 103°49'0 0.1
2017-Sep-28 19:57N 01°14' E 103°49'0 0.0
2017-Sep-28 19:30N 01°14' E 103°49'0 0.0
2017-Sep-28 19:00N 01°14' E 103°49'0 0.0
2017-Sep-28 18:30N 01°14' E 103°49'0 0.0
2017-Sep-28 18:00N 01°14' E 103°49'0 0.0
2017-Sep-28 17:30N 01°14' E 103°49'0 0.0
2017-Sep-28 16:57N 01°14' E 103°49'0 0.1
2017-Sep-28 16:30N 01°14' E 103°49'0 0.0
2017-Sep-28 16:00N 01°14' E 103°49'0 0.0
2017-Sep-28 15:30N 01°14' E 103°49'0 0.6
2017-Sep-28 15:00N 01°13' E 103°49'3 6.0
2017-Sep-28 14:30N 01°13' E 103°52'4 8.1
2017-Sep-28 14:00N 01°14' E 103°55'3 6.2
2017-Sep-28 13:30N 01°16' E 103°58'2 3.8
2017-Sep-28 13:00N 01°16' E 104°00'3 5.1
2017-Sep-28 12:27N 01°16' E 104°03'2 4.7
2017-Sep-28 11:58N 01°17' E 104°05'2 4.1
2017-Sep-28 11:23N 01°19' E 104°05'3 6.8
2017-Sep-28 10:58N 01°21' E 104°03'4 0.3
2017-Sep-27 20:01N 01°19' E 104°07'0 1.2
2017-Sep-27 19:49N 01°19' E 104°07'5 0.5
2017-Sep-27 08:45N 01°22' E 104°03'311.2
2017-Sep-27 08:31N 01°20' E 104°05'3 2.4
2017-Sep-27 07:06N 01°19' E 104°08'0 0.0
2017-Sep-27 06:52N 01°19' E 104°08'0 0.1
2017-Sep-27 05:46N 01°19' E 104°08'0 0.0
2017-Sep-27 01:13N 01°19' E 104°08'0 0.1
2017-Sep-27 00:43N 01°19' E 104°08'0 0.2
2017-Sep-27 00:19N 01°19' E 104°08'0 0.1
2017-Sep-26 23:46N 01°19' E 104°08'0 0.0
2017-Sep-26 22:09N 01°19' E 104°08'0 0.1
2017-Sep-26 21:55N 01°19' E 104°08'0 0.0
2017-Sep-26 21:12N 01°19' E 104°08'0 0.0
2017-Sep-26 20:46N 01°19' E 104°08'0 0.0
2017-Sep-26 20:25N 01°19' E 104°08'0 0.1
2017-Sep-26 19:58N 01°19' E 104°08'0 0.1
2017-Sep-26 17:10N 01°19' E 104°08'0 0.0
2017-Sep-26 17:00N 01°19' E 104°08'0 0.2
2017-Sep-26 15:55N 01°19' E 104°08'0 0.1
2017-Sep-26 15:28N 01°19' E 104°08'0 0.1
2017-Sep-26 15:00N 01°19' E 104°08'0 0.3
2017-Sep-26 14:25N 01°19' E 104°08'0 0.8
2017-Sep-26 13:56N 01°18' E 104°08'1 0.9
2017-Sep-26 13:22N 01°19' E 104°08'0 0.0
2017-Sep-26 12:07N 01°19' E 104°08'0 0.0
2017-Sep-26 11:43N 01°19' E 104°08'0 0.0
2017-Sep-26 11:25N 01°19' E 104°08'20 6.0
2017-Sep-26 08:08N 01°13' E 103°49'0 0.0
2017-Sep-26 07:44N 01°13' E 103°49'  

Dump ship's entire track history